sensor_id;sensor_type;location;lat;lon;timestamp;pressure;altitude;pressure_sealevel;temperature;humidity
52839;BME280;39219;53.678;9.856;2023-04-24T00:01:17;75553.97;;;-147.77;97.08
52839;BME280;39219;53.678;9.856;2023-04-24T00:03:44;75555.97;;;-147.77;96.92
52839;BME280;39219;53.678;9.856;2023-04-24T00:06:11;75545.88;;;-147.77;97.29
52839;BME280;39219;53.678;9.856;2023-04-24T00:08:39;75545.88;;;-147.77;96.90
52839;BME280;39219;53.678;9.856;2023-04-24T00:11:05;75547.88;;;-147.77;97.27
52839;BME280;39219;53.678;9.856;2023-04-24T00:13:32;75543.84;;;-147.77;96.91
52839;BME280;39219;53.678;9.856;2023-04-24T00:15:58;75541.81;;;-147.77;97.48
52839;BME280;39219;53.678;9.856;2023-04-24T00:18:24;75545.88;;;-147.77;97.16
52839;BME280;39219;53.678;9.856;2023-04-24T00:20:51;75525.66;;;-147.77;96.99
52839;BME280;39219;53.678;9.856;2023-04-24T00:23:17;75523.63;;;-147.77;97.26
52839;BME280;39219;53.678;9.856;2023-04-24T00:25:45;75523.63;;;-147.77;97.27
52839;BME280;39219;53.678;9.856;2023-04-24T00:28:12;75513.50;;;-147.77;97.12
52839;BME280;39219;53.678;9.856;2023-04-24T00:30:38;75513.50;;;-147.77;97.59
52839;BME280;39219;53.678;9.856;2023-04-24T00:33:04;75515.53;;;-147.77;97.62
52839;BME280;39219;53.678;9.856;2023-04-24T00:35:31;75515.53;;;-147.77;97.57
52839;BME280;39219;53.678;9.856;2023-04-24T00:37:57;75529.69;;;-147.77;97.34
52839;BME280;39219;53.678;9.856;2023-04-24T00:40:24;75523.63;;;-147.77;97.64
52839;BME280;39219;53.678;9.856;2023-04-24T00:42:51;75529.69;;;-147.77;97.25
52839;BME280;39219;53.678;9.856;2023-04-24T00:45:18;75541.81;;;-147.77;98.00
52839;BME280;39219;53.678;9.856;2023-04-24T00:47:45;75543.84;;;-147.77;98.42
52839;BME280;39219;53.678;9.856;2023-04-24T00:50:11;75533.72;;;-147.77;98.80
52839;BME280;39219;53.678;9.856;2023-04-24T00:52:41;75521.59;;;-147.77;98.71
52839;BME280;39219;53.678;9.856;2023-04-24T00:55:08;75517.56;;;-147.77;98.65
52839;BME280;39219;53.678;9.856;2023-04-24T00:57:35;75531.72;;;-147.77;98.18
52839;BME280;39219;53.678;9.856;2023-04-24T01:00:03;75535.75;;;-147.77;98.51
52839;BME280;39219;53.678;9.856;2023-04-24T01:02:33;75553.97;;;-147.77;98.75
52839;BME280;39219;53.678;9.856;2023-04-24T01:05:00;75562.03;;;-147.77;99.10
52839;BME280;39219;53.678;9.856;2023-04-24T01:07:27;75574.19;;;-147.77;99.74
52839;BME280;39219;53.678;9.856;2023-04-24T01:09:53;75572.16;;;-147.77;99.92
52839;BME280;39219;53.678;9.856;2023-04-24T01:12:20;75582.28;;;-147.77;100.00
52839;BME280;39219;53.678;9.856;2023-04-24T01:14:46;75578.22;;;-147.77;100.00
52839;BME280;39219;53.678;9.856;2023-04-24T01:17:14;75580.25;;;-147.77;100.00
52839;BME280;39219;53.678;9.856;2023-04-24T01:19:40;75588.34;;;-147.77;100.00
52839;BME280;39219;53.678;9.856;2023-04-24T01:22:12;75600.47;;;-147.77;100.00
52839;BME280;39219;53.678;9.856;2023-04-24T01:24:39;75600.47;;;-147.77;100.00
52839;BME280;39219;53.678;9.856;2023-04-24T01:27:06;75598.44;;;-147.77;100.00
52839;BME280;39219;53.678;9.856;2023-04-24T01:29:32;75594.41;;;-147.77;100.00
52839;BME280;39219;53.678;9.856;2023-04-24T01:31:59;75606.53;;;-147.77;100.00
52839;BME280;39219;53.678;9.856;2023-04-24T01:34:26;75600.47;;;-147.77;100.00
52839;BME280;39219;53.678;9.856;2023-04-24T01:36:53;75590.38;;;-147.77;100.00
52839;BME280;39219;53.678;9.856;2023-04-24T01:39:21;75594.41;;;-147.77;100.00
52839;BME280;39219;53.678;9.856;2023-04-24T01:41:48;75602.50;;;-147.77;100.00
52839;BME280;39219;53.678;9.856;2023-04-24T01:44:15;75598.44;;;-147.77;100.00
52839;BME280;39219;53.678;9.856;2023-04-24T01:46:42;75586.31;;;-147.77;100.00
52839;BME280;39219;53.678;9.856;2023-04-24T01:49:08;75588.34;;;-147.77;100.00
52839;BME280;39219;53.678;9.856;2023-04-24T01:51:35;75574.19;;;-147.77;99.79
52839;BME280;39219;53.678;9.856;2023-04-24T01:54:02;75574.19;;;-147.77;99.35
52839;BME280;39219;53.678;9.856;2023-04-24T01:56:29;75578.22;;;-147.77;99.23
52839;BME280;39219;53.678;9.856;2023-04-24T01:58:56;75570.13;;;-147.77;98.66
52839;BME280;39219;53.678;9.856;2023-04-24T02:01:23;75570.13;;;-147.77;98.19
52839;BME280;39219;53.678;9.856;2023-04-24T02:03:50;75564.06;;;-147.77;98.16
52839;BME280;39219;53.678;9.856;2023-04-24T02:06:17;75553.97;;;-147.77;98.06
52839;BME280;39219;53.678;9.856;2023-04-24T02:08:43;75566.09;;;-147.77;98.04
52839;BME280;39219;53.678;9.856;2023-04-24T02:11:10;75566.09;;;-147.77;98.05
52839;BME280;39219;53.678;9.856;2023-04-24T02:13:37;75564.06;;;-147.77;97.52
52839;BME280;39219;53.678;9.856;2023-04-24T02:16:04;75572.16;;;-147.77;97.06
52839;BME280;39219;53.678;9.856;2023-04-24T02:18:30;75576.22;;;-147.77;96.74
52839;BME280;39219;53.678;9.856;2023-04-24T02:20:57;75574.19;;;-147.77;95.01
52839;BME280;39219;53.678;9.856;2023-04-24T02:23:23;75578.22;;;-147.77;94.77
52839;BME280;39219;53.678;9.856;2023-04-24T02:25:50;75590.38;;;-147.77;94.60
52839;BME280;39219;53.678;9.856;2023-04-24T02:28:18;75600.47;;;-147.77;94.77
52839;BME280;39219;53.678;9.856;2023-04-24T02:30:46;75604.53;;;-147.77;94.98
52839;BME280;39219;53.678;9.856;2023-04-24T02:33:12;75610.59;;;-147.77;94.40
52839;BME280;39219;53.678;9.856;2023-04-24T02:35:39;75626.75;;;-147.77;94.48
52839;BME280;39219;53.678;9.856;2023-04-24T02:38:05;75638.91;;;-147.77;95.27
52839;BME280;39219;53.678;9.856;2023-04-24T02:40:31;75653.06;;;-147.77;95.24
52839;BME280;39219;53.678;9.856;2023-04-24T02:42:58;75655.06;;;-147.77;95.73
52839;BME280;39219;53.678;9.856;2023-04-24T02:45:24;75653.06;;;-147.77;95.39
52839;BME280;39219;53.678;9.856;2023-04-24T02:47:52;75653.06;;;-147.77;94.40
52839;BME280;39219;53.678;9.856;2023-04-24T02:50:19;75657.09;;;-147.77;93.76
52839;BME280;39219;53.678;9.856;2023-04-24T02:52:45;75671.25;;;-147.77;93.42
52839;BME280;39219;53.678;9.856;2023-04-24T02:55:12;75667.22;;;-147.77;93.30
52839;BME280;39219;53.678;9.856;2023-04-24T02:57:38;75669.22;;;-147.77;92.92
52839;BME280;39219;53.678;9.856;2023-04-24T03:00:06;75665.19;;;-147.77;91.64
52839;BME280;39219;53.678;9.856;2023-04-24T03:02:34;75679.34;;;-147.77;91.54
52839;BME280;39219;53.678;9.856;2023-04-24T03:05:02;75669.22;;;-147.77;92.21
52839;BME280;39219;53.678;9.856;2023-04-24T03:07:29;75665.19;;;-147.77;92.23
52839;BME280;39219;53.678;9.856;2023-04-24T03:09:56;75671.25;;;-147.77;92.09
52839;BME280;39219;53.678;9.856;2023-04-24T03:12:23;75679.34;;;-147.77;91.96
52839;BME280;39219;53.678;9.856;2023-04-24T03:14:50;75689.47;;;-147.77;93.22
52839;BME280;39219;53.678;9.856;2023-04-24T03:17:16;75701.59;;;-147.77;93.95
52839;BME280;39219;53.678;9.856;2023-04-24T03:19:43;75695.53;;;-147.77;94.15
52839;BME280;39219;53.678;9.856;2023-04-24T03:22:11;75713.72;;;-147.77;95.36
52839;BME280;39219;53.678;9.856;2023-04-24T03:24:37;75715.75;;;-147.77;95.77
52839;BME280;39219;53.678;9.856;2023-04-24T03:27:04;75727.88;;;-147.77;95.81
52839;BME280;39219;53.678;9.856;2023-04-24T03:29:30;75727.88;;;-147.77;96.94
52839;BME280;39219;53.678;9.856;2023-04-24T03:31:57;75742.03;;;-147.77;97.26
52839;BME280;39219;53.678;9.856;2023-04-24T03:34:23;75740.03;;;-147.77;97.92
52839;BME280;39219;53.678;9.856;2023-04-24T03:36:50;75725.88;;;-147.77;98.45
52839;BME280;39219;53.678;9.856;2023-04-24T03:39:19;75731.94;;;-147.77;98.26
52839;BME280;39219;53.678;9.856;2023-04-24T03:41:45;75725.88;;;-147.77;97.49
52839;BME280;39219;53.678;9.856;2023-04-24T03:44:11;75735.97;;;-147.77;97.43
52839;BME280;39219;53.678;9.856;2023-04-24T03:46:38;75723.84;;;-147.77;97.25
52839;BME280;39219;53.678;9.856;2023-04-24T03:49:04;75727.88;;;-147.77;97.06
52839;BME280;39219;53.678;9.856;2023-04-24T03:51:31;75733.97;;;-147.77;97.02
52839;BME280;39219;53.678;9.856;2023-04-24T03:53:57;75729.91;;;-147.77;96.36
52839;BME280;39219;53.678;9.856;2023-04-24T03:56:25;75723.84;;;-147.77;95.85
52839;BME280;39219;53.678;9.856;2023-04-24T03:58:51;75725.88;;;-147.77;95.54
52839;BME280;39219;53.678;9.856;2023-04-24T04:01:18;75723.84;;;-147.77;94.97
52839;BME280;39219;53.678;9.856;2023-04-24T04:03:45;75713.72;;;-147.77;93.78
52839;BME280;39219;53.678;9.856;2023-04-24T04:06:12;75713.72;;;-147.77;92.83
52839;BME280;39219;53.678;9.856;2023-04-24T04:08:38;75713.72;;;-147.77;92.15
52839;BME280;39219;53.678;9.856;2023-04-24T04:11:05;75721.81;;;-147.77;91.81
52839;BME280;39219;53.678;9.856;2023-04-24T04:13:33;75715.75;;;-147.77;91.64
52839;BME280;39219;53.678;9.856;2023-04-24T04:15:59;75705.63;;;-147.77;91.05
52839;BME280;39219;53.678;9.856;2023-04-24T04:18:25;75721.81;;;-147.77;91.09
52839;BME280;39219;53.678;9.856;2023-04-24T04:20:52;75721.81;;;-147.77;91.22
52839;BME280;39219;53.678;9.856;2023-04-24T04:23:18;75733.97;;;-147.77;90.72
52839;BME280;39219;53.678;9.856;2023-04-24T04:25:45;75735.97;;;-147.77;90.85
52839;BME280;39219;53.678;9.856;2023-04-24T04:28:12;75746.09;;;-147.77;90.84
52839;BME280;39219;53.678;9.856;2023-04-24T04:30:39;75750.13;;;-147.77;90.50
52839;BME280;39219;53.678;9.856;2023-04-24T04:33:06;75738.00;;;-147.77;90.08
52839;BME280;39219;53.678;9.856;2023-04-24T04:35:33;75729.91;;;-147.77;89.21
52839;BME280;39219;53.678;9.856;2023-04-24T04:38:00;75721.81;;;-147.77;88.99
52839;BME280;39219;53.678;9.856;2023-04-24T04:40:26;75723.84;;;-147.77;88.95
52839;BME280;39219;53.678;9.856;2023-04-24T04:42:53;75723.84;;;-147.77;88.68
52839;BME280;39219;53.678;9.856;2023-04-24T04:45:20;75701.59;;;-147.77;87.72
52839;BME280;39219;53.678;9.856;2023-04-24T04:47:48;75697.56;;;-147.77;86.76
52839;BME280;39219;53.678;9.856;2023-04-24T04:50:14;75679.34;;;-147.77;86.16
52839;BME280;39219;53.678;9.856;2023-04-24T04:52:41;75671.25;;;-147.77;85.81
52839;BME280;39219;53.678;9.856;2023-04-24T04:55:08;75671.25;;;-147.77;85.24
52839;BME280;39219;53.678;9.856;2023-04-24T04:57:35;75667.22;;;-147.77;84.61
52839;BME280;39219;53.678;9.856;2023-04-24T05:00:01;75663.16;;;-147.77;84.94
52839;BME280;39219;53.678;9.856;2023-04-24T05:02:30;75653.06;;;-147.77;84.23
52839;BME280;39219;53.678;9.856;2023-04-24T05:04:57;75659.13;;;-147.77;83.86
52839;BME280;39219;53.678;9.856;2023-04-24T05:07:24;75649.00;;;-147.77;83.39
52839;BME280;39219;53.678;9.856;2023-04-24T05:09:50;75644.97;;;-147.77;82.79
52839;BME280;39219;53.678;9.856;2023-04-24T05:12:17;75632.84;;;-147.77;81.94
52839;BME280;39219;53.678;9.856;2023-04-24T05:14:44;75632.84;;;-147.77;81.84
52839;BME280;39219;53.678;9.856;2023-04-24T05:17:10;75630.81;;;-147.77;82.88
52839;BME280;39219;53.678;9.856;2023-04-24T05:19:37;75606.53;;;-147.77;82.48
52839;BME280;39219;53.678;9.856;2023-04-24T05:22:05;75584.28;;;-147.77;81.44
52839;BME280;39219;53.678;9.856;2023-04-24T05:24:32;75564.06;;;-147.77;80.65
52839;BME280;39219;53.678;9.856;2023-04-24T05:26:58;75519.56;;;-147.77;79.55
52839;BME280;39219;53.678;9.856;2023-04-24T05:29:25;75501.38;;;-147.77;77.33
52839;BME280;39219;53.678;9.856;2023-04-24T05:31:52;75517.56;;;-147.77;78.42
52839;BME280;39219;53.678;9.856;2023-04-24T05:34:18;75564.06;;;-147.77;78.75
52839;BME280;39219;53.678;9.856;2023-04-24T05:36:45;75584.28;;;-147.77;78.71
52839;BME280;39219;53.678;9.856;2023-04-24T05:39:13;75566.09;;;-147.77;79.85
52839;BME280;39219;53.678;9.856;2023-04-24T05:41:40;75586.31;;;-147.77;79.85
52839;BME280;39219;53.678;9.856;2023-04-24T05:44:06;75578.22;;;-147.77;80.70
52839;BME280;39219;53.678;9.856;2023-04-24T05:46:32;75572.16;;;-147.77;78.84
52839;BME280;39219;53.678;9.856;2023-04-24T05:48:59;75560.03;;;-147.77;79.03
52839;BME280;39219;53.678;9.856;2023-04-24T05:51:25;75537.78;;;-147.77;78.32
52839;BME280;39219;53.678;9.856;2023-04-24T05:53:52;75325.44;;;-147.77;73.22
52839;BME280;39219;53.678;9.856;2023-04-24T05:56:20;75264.75;;;-147.77;66.85
52839;BME280;39219;53.678;9.856;2023-04-24T05:58:46;75363.84;;;-147.77;69.57
52839;BME280;39219;53.678;9.856;2023-04-24T06:01:13;75341.63;;;-147.77;70.97
52839;BME280;39219;53.678;9.856;2023-04-24T06:03:41;75293.06;;;-147.77;70.72
52839;BME280;39219;53.678;9.856;2023-04-24T06:06:07;75335.53;;;-147.77;69.35
52839;BME280;39219;53.678;9.856;2023-04-24T06:08:34;75394.19;;;-147.77;72.95
52839;BME280;39219;53.678;9.856;2023-04-24T06:11:01;75373.97;;;-147.77;71.21
52839;BME280;39219;53.678;9.856;2023-04-24T06:13:29;75250.59;;;-147.77;66.78
52839;BME280;39219;53.678;9.856;2023-04-24T06:15:55;75177.81;;;-147.77;65.56
52839;BME280;39219;53.678;9.856;2023-04-24T06:18:22;75151.53;;;-147.77;63.22
52839;BME280;39219;53.678;9.856;2023-04-24T06:20:48;75189.94;;;-147.77;62.60
52839;BME280;39219;53.678;9.856;2023-04-24T06:23:15;75141.41;;;-147.77;63.89
52839;BME280;39219;53.678;9.856;2023-04-24T06:25:41;75111.06;;;-147.77;63.24
52839;BME280;39219;53.678;9.856;2023-04-24T06:28:08;75143.44;;;-147.77;63.31
52839;BME280;39219;53.678;9.856;2023-04-24T06:30:36;75068.63;;;-147.77;61.42
52839;BME280;39219;53.678;9.856;2023-04-24T06:33:02;75046.38;;;-147.77;62.42
52839;BME280;39219;53.678;9.856;2023-04-24T06:35:29;75088.84;;;-147.77;60.70
52839;BME280;39219;53.678;9.856;2023-04-24T06:37:55;75080.75;;;-147.77;62.53
52839;BME280;39219;53.678;9.856;2023-04-24T06:40:22;75086.81;;;-147.77;58.69
52839;BME280;39219;53.678;9.856;2023-04-24T06:42:49;75145.44;;;-147.77;59.51
52839;BME280;39219;53.678;9.856;2023-04-24T06:45:16;75068.63;;;-147.77;61.69
52839;BME280;39219;53.678;9.856;2023-04-24T06:47:44;75169.72;;;-147.77;60.54
52839;BME280;39219;53.678;9.856;2023-04-24T06:50:10;75242.53;;;-147.77;63.62
52839;BME280;39219;53.678;9.856;2023-04-24T06:52:37;75311.28;;;-147.77;64.52
52839;BME280;39219;53.678;9.856;2023-04-24T06:55:05;75386.09;;;-147.77;66.94
52839;BME280;39219;53.678;9.856;2023-04-24T06:57:31;75321.38;;;-147.77;67.16
52839;BME280;39219;53.678;9.856;2023-04-24T06:59:58;75317.34;;;-147.77;68.58
52839;BME280;39219;53.678;9.856;2023-04-24T07:02:24;75319.38;;;-147.77;68.31
52839;BME280;39219;53.678;9.856;2023-04-24T07:04:52;75301.16;;;-147.77;66.86
52839;BME280;39219;53.678;9.856;2023-04-24T07:07:19;75303.19;;;-147.77;67.37
52839;BME280;39219;53.678;9.856;2023-04-24T07:09:46;75303.19;;;-147.77;67.14
52839;BME280;39219;53.678;9.856;2023-04-24T07:12:13;75311.28;;;-147.77;68.77
52839;BME280;39219;53.678;9.856;2023-04-24T07:14:40;75345.66;;;-147.77;69.22
52839;BME280;39219;53.678;9.856;2023-04-24T07:17:06;75333.53;;;-147.77;69.58
52839;BME280;39219;53.678;9.856;2023-04-24T07:19:33;75319.38;;;-147.77;67.37
52839;BME280;39219;53.678;9.856;2023-04-24T07:22:01;75161.63;;;-147.77;66.24
52839;BME280;39219;53.678;9.856;2023-04-24T07:24:28;75119.16;;;-147.77;62.88
52839;BME280;39219;53.678;9.856;2023-04-24T07:26:57;75208.16;;;-147.77;62.95
52839;BME280;39219;53.678;9.856;2023-04-24T07:29:24;75303.19;;;-147.77;65.64
52839;BME280;39219;53.678;9.856;2023-04-24T07:31:50;75226.34;;;-147.77;63.90
52839;BME280;39219;53.678;9.856;2023-04-24T07:34:17;75305.22;;;-147.77;66.47
52839;BME280;39219;53.678;9.856;2023-04-24T07:36:43;75287.00;;;-147.77;66.73
52839;BME280;39219;53.678;9.856;2023-04-24T07:39:11;75295.09;;;-147.77;66.68
52839;BME280;39219;53.678;9.856;2023-04-24T07:41:38;75289.03;;;-147.77;64.96
52839;BME280;39219;53.678;9.856;2023-04-24T07:44:05;75339.59;;;-147.77;68.96
52839;BME280;39219;53.678;9.856;2023-04-24T07:46:32;75426.56;;;-147.77;68.47
52839;BME280;39219;53.678;9.856;2023-04-24T07:48:58;75446.78;;;-147.77;71.41
52839;BME280;39219;53.678;9.856;2023-04-24T07:51:26;75448.78;;;-147.77;70.71
52839;BME280;39219;53.678;9.856;2023-04-24T07:53:53;75469.03;;;-147.77;69.37
52839;BME280;39219;53.678;9.856;2023-04-24T07:56:21;75450.81;;;-147.77;72.18
52839;BME280;39219;53.678;9.856;2023-04-24T07:58:47;75473.06;;;-147.77;72.13
52839;BME280;39219;53.678;9.856;2023-04-24T08:01:14;75525.66;;;-147.77;72.82
52839;BME280;39219;53.678;9.856;2023-04-24T08:03:40;75523.63;;;-147.77;72.71
52839;BME280;39219;53.678;9.856;2023-04-24T08:06:07;75543.84;;;-147.77;72.82
52839;BME280;39219;53.678;9.856;2023-04-24T08:08:33;75539.81;;;-147.77;73.32
52839;BME280;39219;53.678;9.856;2023-04-24T08:11:00;75529.69;;;-147.77;72.54
52839;BME280;39219;53.678;9.856;2023-04-24T08:13:28;75515.53;;;-147.77;72.21
52839;BME280;39219;53.678;9.856;2023-04-24T08:15:56;75517.56;;;-147.77;72.81
52839;BME280;39219;53.678;9.856;2023-04-24T08:18:23;75507.44;;;-147.77;73.27
52839;BME280;39219;53.678;9.856;2023-04-24T08:20:49;75505.41;;;-147.77;72.61
52839;BME280;39219;53.678;9.856;2023-04-24T08:23:15;75511.50;;;-147.77;72.34
52839;BME280;39219;53.678;9.856;2023-04-24T08:25:42;75515.53;;;-147.77;71.42
52839;BME280;39219;53.678;9.856;2023-04-24T08:28:09;75523.63;;;-147.77;70.68
52839;BME280;39219;53.678;9.856;2023-04-24T08:30:37;75513.50;;;-147.77;71.82
52839;BME280;39219;53.678;9.856;2023-04-24T08:33:04;75507.44;;;-147.77;72.07
52839;BME280;39219;53.678;9.856;2023-04-24T08:35:30;75493.28;;;-147.77;70.26
52839;BME280;39219;53.678;9.856;2023-04-24T08:37:57;75499.34;;;-147.77;70.57
52839;BME280;39219;53.678;9.856;2023-04-24T08:40:28;75491.25;;;-147.77;70.26
52839;BME280;39219;53.678;9.856;2023-04-24T08:42:55;75493.28;;;-147.77;70.50
52839;BME280;39219;53.678;9.856;2023-04-24T08:45:23;75505.41;;;-147.77;70.21
52839;BME280;39219;53.678;9.856;2023-04-24T08:47:51;75501.38;;;-147.77;70.79
52839;BME280;39219;53.678;9.856;2023-04-24T08:50:18;75515.53;;;-147.77;70.24
52839;BME280;39219;53.678;9.856;2023-04-24T08:52:45;75497.34;;;-147.77;70.64
52839;BME280;39219;53.678;9.856;2023-04-24T08:55:12;75505.41;;;-147.77;69.27
52839;BME280;39219;53.678;9.856;2023-04-24T08:57:40;75519.56;;;-147.77;70.22
52839;BME280;39219;53.678;9.856;2023-04-24T09:00:07;75507.44;;;-147.77;71.58
52839;BME280;39219;53.678;9.856;2023-04-24T09:02:34;75517.56;;;-147.77;70.08
52839;BME280;39219;53.678;9.856;2023-04-24T09:05:02;75509.47;;;-147.77;72.13
52839;BME280;39219;53.678;9.856;2023-04-24T09:07:34;75505.41;;;-147.77;71.69
52839;BME280;39219;53.678;9.856;2023-04-24T09:10:02;75493.28;;;-147.77;69.98
52839;BME280;39219;53.678;9.856;2023-04-24T09:12:29;75499.34;;;-147.77;70.17
52839;BME280;39219;53.678;9.856;2023-04-24T09:14:56;75505.41;;;-147.77;70.86
52839;BME280;39219;53.678;9.856;2023-04-24T09:17:24;75493.28;;;-147.77;71.10
52839;BME280;39219;53.678;9.856;2023-04-24T09:19:52;75493.28;;;-147.77;69.67
52839;BME280;39219;53.678;9.856;2023-04-24T09:22:20;75491.25;;;-147.77;72.23
52839;BME280;39219;53.678;9.856;2023-04-24T09:24:47;75493.28;;;-147.77;70.60
52839;BME280;39219;53.678;9.856;2023-04-24T09:27:13;75475.09;;;-147.77;71.15
52839;BME280;39219;53.678;9.856;2023-04-24T09:29:53;75481.16;;;-147.77;71.57
52839;BME280;39219;53.678;9.856;2023-04-24T09:32:21;75507.44;;;-147.77;71.85
52839;BME280;39219;53.678;9.856;2023-04-24T09:35:05;75513.50;;;-147.77;71.38
52839;BME280;39219;53.678;9.856;2023-04-24T09:37:35;75517.56;;;-147.77;70.78
52839;BME280;39219;53.678;9.856;2023-04-24T09:40:23;75489.25;;;-147.77;70.50
52839;BME280;39219;53.678;9.856;2023-04-24T09:42:52;75424.53;;;-147.77;71.26
52839;BME280;39219;53.678;9.856;2023-04-24T09:45:19;75436.66;;;-147.77;69.69
52839;BME280;39219;53.678;9.856;2023-04-24T09:47:51;75446.78;;;-147.77;69.94
52839;BME280;39219;53.678;9.856;2023-04-24T09:50:17;75489.25;;;-147.77;70.01
52839;BME280;39219;53.678;9.856;2023-04-24T09:52:46;75537.78;;;-147.77;69.73
52839;BME280;39219;53.678;9.856;2023-04-24T09:55:17;75539.81;;;-147.77;71.76
52839;BME280;39219;53.678;9.856;2023-04-24T09:57:48;75537.78;;;-147.77;71.52
52839;BME280;39219;53.678;9.856;2023-04-24T10:00:18;75519.56;;;-147.77;71.35
52839;BME280;39219;53.678;9.856;2023-04-24T10:02:49;75501.38;;;-147.77;73.10
52839;BME280;39219;53.678;9.856;2023-04-24T10:05:16;75497.34;;;-147.77;70.62
52839;BME280;39219;53.678;9.856;2023-04-24T10:07:43;75499.34;;;-147.77;71.93
52839;BME280;39219;53.678;9.856;2023-04-24T10:10:11;75517.56;;;-147.77;72.23
52839;BME280;39219;53.678;9.856;2023-04-24T10:12:39;75533.72;;;-147.77;72.18
52839;BME280;39219;53.678;9.856;2023-04-24T10:15:07;75570.13;;;-147.77;71.92
52839;BME280;39219;53.678;9.856;2023-04-24T10:17:34;75560.03;;;-147.77;72.04
52839;BME280;39219;53.678;9.856;2023-04-24T10:20:02;75558.00;;;-147.77;71.90
52839;BME280;39219;53.678;9.856;2023-04-24T10:22:29;75527.66;;;-147.77;71.37
52839;BME280;39219;53.678;9.856;2023-04-24T10:24:56;75497.34;;;-147.77;70.76
52839;BME280;39219;53.678;9.856;2023-04-24T10:27:26;75481.16;;;-147.77;70.42
52839;BME280;39219;53.678;9.856;2023-04-24T10:29:53;75511.50;;;-147.77;70.12
52839;BME280;39219;53.678;9.856;2023-04-24T10:32:19;75535.75;;;-147.77;70.30
52839;BME280;39219;53.678;9.856;2023-04-24T10:34:46;75527.66;;;-147.77;71.40
52839;BME280;39219;53.678;9.856;2023-04-24T10:37:13;75481.16;;;-147.77;71.09
52839;BME280;39219;53.678;9.856;2023-04-24T10:39:40;75414.41;;;-147.77;72.73
52839;BME280;39219;53.678;9.856;2023-04-24T10:42:14;75414.41;;;-147.77;68.53
52839;BME280;39219;53.678;9.856;2023-04-24T10:44:42;75436.66;;;-147.77;68.41
52839;BME280;39219;53.678;9.856;2023-04-24T10:47:12;75464.97;;;-147.77;68.42
52839;BME280;39219;53.678;9.856;2023-04-24T10:49:39;75481.16;;;-147.77;68.98
52839;BME280;39219;53.678;9.856;2023-04-24T10:52:08;75454.88;;;-147.77;69.02
52839;BME280;39219;53.678;9.856;2023-04-24T10:54:36;75410.38;;;-147.77;66.92
52839;BME280;39219;53.678;9.856;2023-04-24T10:57:26;75400.25;;;-147.77;67.75
52839;BME280;39219;53.678;9.856;2023-04-24T11:00:18;75460.94;;;-147.77;66.29
52839;BME280;39219;53.678;9.856;2023-04-24T11:02:46;75493.28;;;-147.77;68.02
52839;BME280;39219;53.678;9.856;2023-04-24T11:05:15;75513.50;;;-147.77;69.34
52839;BME280;39219;53.678;9.856;2023-04-24T11:08:11;75517.56;;;-147.77;69.74
52839;BME280;39219;53.678;9.856;2023-04-24T11:10:39;75547.88;;;-147.77;70.57
52839;BME280;39219;53.678;9.856;2023-04-24T11:13:06;75572.16;;;-147.77;69.46
52839;BME280;39219;53.678;9.856;2023-04-24T11:15:34;75574.19;;;-147.77;70.55
52839;BME280;39219;53.678;9.856;2023-04-24T11:18:01;75602.50;;;-147.77;71.05
52839;BME280;39219;53.678;9.856;2023-04-24T11:20:28;75618.69;;;-147.77;70.53
52839;BME280;39219;53.678;9.856;2023-04-24T11:22:55;75610.59;;;-147.77;72.09
52839;BME280;39219;53.678;9.856;2023-04-24T11:25:23;75596.44;;;-147.77;72.70
52839;BME280;39219;53.678;9.856;2023-04-24T11:27:50;75592.38;;;-147.77;72.32
52839;BME280;39219;53.678;9.856;2023-04-24T11:30:29;75578.22;;;-147.77;70.75
52839;BME280;39219;53.678;9.856;2023-04-24T11:33:01;75574.19;;;-147.77;71.21
52839;BME280;39219;53.678;9.856;2023-04-24T11:35:28;75574.19;;;-147.77;70.64
52839;BME280;39219;53.678;9.856;2023-04-24T11:37:56;75547.88;;;-147.77;71.96
52839;BME280;39219;53.678;9.856;2023-04-24T11:40:23;75481.16;;;-147.77;71.09
52839;BME280;39219;53.678;9.856;2023-04-24T11:42:52;75467.00;;;-147.77;69.21
52839;BME280;39219;53.678;9.856;2023-04-24T11:45:22;75475.09;;;-147.77;67.20
52839;BME280;39219;53.678;9.856;2023-04-24T11:47:50;75473.06;;;-147.77;69.40
52839;BME280;39219;53.678;9.856;2023-04-24T11:50:20;75473.06;;;-147.77;67.89
52839;BME280;39219;53.678;9.856;2023-04-24T11:52:48;75473.06;;;-147.77;66.59
52839;BME280;39219;53.678;9.856;2023-04-24T11:55:26;75475.09;;;-147.77;65.48
52839;BME280;39219;53.678;9.856;2023-04-24T11:57:54;75464.97;;;-147.77;66.20
52839;BME280;39219;53.678;9.856;2023-04-24T12:00:23;75444.75;;;-147.77;67.84
52839;BME280;39219;53.678;9.856;2023-04-24T12:02:51;75448.78;;;-147.77;65.81
52839;BME280;39219;53.678;9.856;2023-04-24T12:05:20;75473.06;;;-147.77;65.39
52839;BME280;39219;53.678;9.856;2023-04-24T12:07:47;75493.28;;;-147.77;65.35
52839;BME280;39219;53.678;9.856;2023-04-24T12:10:13;75497.34;;;-147.77;67.22
52839;BME280;39219;53.678;9.856;2023-04-24T12:12:40;75507.44;;;-147.77;65.72
52839;BME280;39219;53.678;9.856;2023-04-24T12:15:08;75507.44;;;-147.77;66.17
52839;BME280;39219;53.678;9.856;2023-04-24T12:17:35;75533.72;;;-147.77;65.53
52839;BME280;39219;53.678;9.856;2023-04-24T12:20:04;75479.13;;;-147.77;66.89
52839;BME280;39219;53.678;9.856;2023-04-24T12:22:44;75513.50;;;-147.77;65.54
52839;BME280;39219;53.678;9.856;2023-04-24T12:25:12;75513.50;;;-147.77;65.52
52839;BME280;39219;53.678;9.856;2023-04-24T12:27:39;75469.03;;;-147.77;66.88
52839;BME280;39219;53.678;9.856;2023-04-24T12:30:10;75473.06;;;-147.77;64.41
52839;BME280;39219;53.678;9.856;2023-04-24T12:32:41;75467.00;;;-147.77;65.95
52839;BME280;39219;53.678;9.856;2023-04-24T12:35:08;75452.84;;;-147.77;66.44
52839;BME280;39219;53.678;9.856;2023-04-24T12:37:35;75444.75;;;-147.77;65.31
52839;BME280;39219;53.678;9.856;2023-04-24T12:40:05;75464.97;;;-147.77;65.02
52839;BME280;39219;53.678;9.856;2023-04-24T12:42:32;75491.25;;;-147.77;65.57